Ilam, Iran

6:02 PM IRST on December 06, 2016 (GMT +0330)
ILAM AIRPORT | | Change Station

Elev 4386 ft 33.59 °N, 46.40 °E | Updated 32 minutes ago

Clear
Clear
48 °F
Feels Like 48 °F
N
5
Wind Variable Wind from WNW

Today
High -- | Low -- °F
--% Chance of Precip.
Yesterday
High -- | Low -- °F
Precip. -- in
Pressure 30.12 in
Visibility -9999.0 miles
Clouds
Dew Point 28 °F
Humidity 46%
Rainfall 0.00 in
Snow Depth Not available.
7:14 AM 5:15 PM
Waxing Crescent, 42% visible
METAR OICI 061400Z 30004KT CAVOK 09/M02 Q1020 A3014
Pressure 30.12 in
Visibility -9999.0 miles
Clouds
Dew Point 28 °F
Humidity 46%
Rainfall 0.00 in
Snow Depth Not available.
7:14 AM 5:15 PM
Waxing Crescent, 42% visible
METAR OICI 061400Z 30004KT CAVOK 09/M02 Q1020 A3014

10-Day Weather Forecast

No radar image for this location.
×

Almanac

Astronomy

Dec. 06, 2016 Rise Set
Actual Time
Civil Twilight
Nautical Twilight
Astronomical Twilight
Moon
Length of Visible Light
Length of Day
Tomorrow will be .
, % of the Moon is Illuminated

Today's Extremes

Country Highs Country Lows

Community

WunderPhotos

Upload Photos

1,955,949 photos uploaded!

WunderBlog® & News

Nearby

Air Quality

  Air Quality AQ Index Pollutant
Not available.

Snow Depth

Station Depth Elevation

Earthquake Activity

City Distance Mag. Time & Date
Minimum magnitude displayed is 2.5.

Coastal Water Temperatures

Place Temperature

Stations

Nearby Weather Stations

Station Location Temp. Windchill Dew Point Humidity Wind Precip. Elev Updated Type